sensor_id;sensor_type;location;lat;lon;timestamp;pressure;altitude;pressure_sealevel;temperature;humidity
34925;BME280;21130;51.728;8.748;2024-03-25T00:01:22;99328.31;;;3.90;100.00
34925;BME280;21130;51.728;8.748;2024-03-25T00:03:51;99330.69;;;3.87;100.00
34925;BME280;21130;51.728;8.748;2024-03-25T00:06:16;99335.94;;;3.88;100.00
34925;BME280;21130;51.728;8.748;2024-03-25T00:08:43;99338.69;;;3.88;100.00
34925;BME280;21130;51.728;8.748;2024-03-25T00:11:08;99336.19;;;3.87;100.00
34925;BME280;21130;51.728;8.748;2024-03-25T00:13:34;99329.00;;;3.86;100.00
34925;BME280;21130;51.728;8.748;2024-03-25T00:16:00;99326.88;;;3.88;100.00
34925;BME280;21130;51.728;8.748;2024-03-25T00:18:26;99340.00;;;3.86;100.00
34925;BME280;21130;51.728;8.748;2024-03-25T00:20:53;99340.00;;;3.86;100.00
34925;BME280;21130;51.728;8.748;2024-03-25T00:23:19;99351.59;;;3.88;100.00
34925;BME280;21130;51.728;8.748;2024-03-25T00:25:46;99346.09;;;3.88;100.00
34925;BME280;21130;51.728;8.748;2024-03-25T00:28:12;99355.63;;;3.85;100.00
34925;BME280;21130;51.728;8.748;2024-03-25T00:32:40;99350.28;;;3.90;100.00
34925;BME280;21130;51.728;8.748;2024-03-25T00:35:07;99356.84;;;3.89;100.00
34925;BME280;21130;51.728;8.748;2024-03-25T00:37:32;99358.63;;;3.84;100.00
34925;BME280;21130;51.728;8.748;2024-03-25T00:39:59;99363.25;;;3.83;100.00
34925;BME280;21130;51.728;8.748;2024-03-25T00:42:25;99353.56;;;3.81;100.00
34925;BME280;21130;51.728;8.748;2024-03-25T00:44:53;99365.41;;;3.81;100.00
34925;BME280;21130;51.728;8.748;2024-03-25T00:47:18;99365.63;;;3.80;100.00
34925;BME280;21130;51.728;8.748;2024-03-25T00:49:46;99361.44;;;3.77;100.00
34925;BME280;21130;51.728;8.748;2024-03-25T00:52:12;99368.81;;;3.77;100.00
34925;BME280;21130;51.728;8.748;2024-03-25T00:54:38;99366.31;;;3.75;100.00
34925;BME280;21130;51.728;8.748;2024-03-25T00:57:04;99368.44;;;3.73;100.00
34925;BME280;21130;51.728;8.748;2024-03-25T00:59:30;99370.97;;;3.75;100.00
34925;BME280;21130;51.728;8.748;2024-03-25T01:01:56;99384.06;;;3.73;100.00
34925;BME280;21130;51.728;8.748;2024-03-25T01:04:22;99371.31;;;3.78;100.00
34925;BME280;21130;51.728;8.748;2024-03-25T01:06:49;99366.31;;;3.75;100.00
34925;BME280;21130;51.728;8.748;2024-03-25T01:09:16;99366.97;;;3.71;100.00
34925;BME280;21130;51.728;8.748;2024-03-25T01:11:42;99366.31;;;3.75;100.00
34925;BME280;21130;51.728;8.748;2024-03-25T01:14:08;99373.84;;;3.80;100.00
34925;BME280;21130;51.728;8.748;2024-03-25T01:16:34;99371.31;;;3.78;100.00
34925;BME280;21130;51.728;8.748;2024-03-25T01:19:00;99370.50;;;3.78;100.00
34925;BME280;21130;51.728;8.748;2024-03-25T01:21:26;99369.19;;;3.80;100.00
34925;BME280;21130;51.728;8.748;2024-03-25T01:23:54;99365.00;;;3.78;100.00
34925;BME280;21130;51.728;8.748;2024-03-25T01:26:19;99360.34;;;3.78;100.00
34925;BME280;21130;51.728;8.748;2024-03-25T01:28:46;99370.50;;;3.78;100.00
34925;BME280;21130;51.728;8.748;2024-03-25T01:31:11;99370.03;;;3.81;100.00
34925;BME280;21130;51.728;8.748;2024-03-25T01:33:39;99371.47;;;3.83;100.00
34925;BME280;21130;51.728;8.748;2024-03-25T01:36:05;99364.94;;;3.84;100.00
34925;BME280;21130;51.728;8.748;2024-03-25T01:38:31;99371.25;;;3.85;100.00
34925;BME280;21130;51.728;8.748;2024-03-25T01:41:08;99366.59;;;3.85;100.00
34925;BME280;21130;51.728;8.748;2024-03-25T01:43:34;99363.84;;;3.85;100.00
34925;BME280;21130;51.728;8.748;2024-03-25T01:46:00;99363.72;;;3.80;100.00
34925;BME280;21130;51.728;8.748;2024-03-25T01:48:28;99363.50;;;3.82;100.00
34925;BME280;21130;51.728;8.748;2024-03-25T01:50:53;99359.06;;;3.81;100.00
34925;BME280;21130;51.728;8.748;2024-03-25T01:53:20;99365.84;;;3.78;100.00
34925;BME280;21130;51.728;8.748;2024-03-25T01:55:46;99369.19;;;3.80;100.00
34925;BME280;21130;51.728;8.748;2024-03-25T01:58:16;99370.50;;;3.78;100.00
34925;BME280;21130;51.728;8.748;2024-03-25T02:00:42;99374.06;;;3.78;100.00
34925;BME280;21130;51.728;8.748;2024-03-25T02:03:09;99376.22;;;3.76;100.00
34925;BME280;21130;51.728;8.748;2024-03-25T02:05:35;99373.25;;;3.78;100.00
34925;BME280;21130;51.728;8.748;2024-03-25T02:08:03;99372.88;;;3.74;100.00
34925;BME280;21130;51.728;8.748;2024-03-25T02:10:29;99379.81;;;3.77;100.00
34925;BME280;21130;51.728;8.748;2024-03-25T02:12:55;99386.13;;;3.77;100.00
34925;BME280;21130;51.728;8.748;2024-03-25T02:15:23;99387.41;;;3.75;100.00
34925;BME280;21130;51.728;8.748;2024-03-25T02:17:51;99394.34;;;3.77;100.00
34925;BME280;21130;51.728;8.748;2024-03-25T02:20:17;99387.41;;;3.75;100.00
34925;BME280;21130;51.728;8.748;2024-03-25T02:22:43;99395.88;;;3.73;100.00
34925;BME280;21130;51.728;8.748;2024-03-25T02:25:10;99402.81;;;3.76;100.00
34925;BME280;21130;51.728;8.748;2024-03-25T02:27:38;99403.88;;;3.75;100.00
34925;BME280;21130;51.728;8.748;2024-03-25T02:30:04;99398.41;;;3.75;100.00
34925;BME280;21130;51.728;8.748;2024-03-25T02:32:32;99393.38;;;3.72;100.00
34925;BME280;21130;51.728;8.748;2024-03-25T02:34:58;99402.66;;;3.71;100.00
34925;BME280;21130;51.728;8.748;2024-03-25T02:37:25;99397.41;;;3.69;100.00
34925;BME280;21130;51.728;8.748;2024-03-25T02:39:51;99406.94;;;3.66;100.00
34925;BME280;21130;51.728;8.748;2024-03-25T02:42:18;99400.38;;;3.67;100.00
34925;BME280;21130;51.728;8.748;2024-03-25T02:44:45;99409.06;;;3.64;100.00
34925;BME280;21130;51.728;8.748;2024-03-25T02:47:11;99406.94;;;3.66;100.00
34925;BME280;21130;51.728;8.748;2024-03-25T02:49:37;99417.28;;;3.64;100.00
34925;BME280;21130;51.728;8.748;2024-03-25T02:52:04;99412.84;;;3.63;100.00
34925;BME280;21130;51.728;8.748;2024-03-25T02:54:30;99417.28;;;3.64;100.00
34925;BME280;21130;51.728;8.748;2024-03-25T02:56:56;99414.91;;;3.68;100.00
34925;BME280;21130;51.728;8.748;2024-03-25T02:59:22;99417.91;;;3.66;100.00
34925;BME280;21130;51.728;8.748;2024-03-25T03:01:49;99425.69;;;3.70;100.00
34925;BME280;21130;51.728;8.748;2024-03-25T03:04:15;99425.69;;;3.70;100.00
34925;BME280;21130;51.728;8.748;2024-03-25T03:06:41;99426.50;;;3.70;100.00
34925;BME280;21130;51.728;8.748;2024-03-25T03:09:07;99423.16;;;3.68;100.00
34925;BME280;21130;51.728;8.748;2024-03-25T03:11:33;99425.44;;;3.71;100.00
34925;BME280;21130;51.728;8.748;2024-03-25T03:13:59;99430.50;;;3.74;100.00
34925;BME280;21130;51.728;8.748;2024-03-25T03:16:26;99429.25;;;3.70;100.00
34925;BME280;21130;51.728;8.748;2024-03-25T03:18:52;99428.88;;;3.66;100.00
34925;BME280;21130;51.728;8.748;2024-03-25T03:21:19;99444.88;;;3.70;100.00
34925;BME280;21130;51.728;8.748;2024-03-25T03:23:44;99438.31;;;3.71;100.00
34925;BME280;21130;51.728;8.748;2024-03-25T03:26:11;99430.72;;;3.73;100.00
34925;BME280;21130;51.728;8.748;2024-03-25T03:28:37;99433.91;;;3.70;100.00
34925;BME280;21130;51.728;8.748;2024-03-25T03:31:03;99437.28;;;3.72;100.00
34925;BME280;21130;51.728;8.748;2024-03-25T03:33:29;99433.91;;;3.70;100.00
34925;BME280;21130;51.728;8.748;2024-03-25T03:35:57;99437.13;;;3.66;100.00
34925;BME280;21130;51.728;8.748;2024-03-25T03:38:23;99442.75;;;3.72;100.00
34925;BME280;21130;51.728;8.748;2024-03-25T03:40:56;99435.59;;;3.71;100.00
34925;BME280;21130;51.728;8.748;2024-03-25T03:43:22;99441.31;;;3.69;100.00
34925;BME280;21130;51.728;8.748;2024-03-25T03:45:48;99438.78;;;3.67;100.00
34925;BME280;21130;51.728;8.748;2024-03-25T03:48:14;99432.69;;;3.65;100.00
34925;BME280;21130;51.728;8.748;2024-03-25T03:50:41;99442.81;;;3.65;100.00
34925;BME280;21130;51.728;8.748;2024-03-25T03:53:08;99438.63;;;3.62;100.00
34925;BME280;21130;51.728;8.748;2024-03-25T03:55:35;99446.22;;;3.60;100.00
34925;BME280;21130;51.728;8.748;2024-03-25T03:58:01;99443.94;;;3.57;100.00
34925;BME280;21130;51.728;8.748;2024-03-25T04:00:28;99438.31;;;3.52;100.00
34925;BME280;21130;51.728;8.748;2024-03-25T04:02:53;99445.44;;;3.53;100.00
34925;BME280;21130;51.728;8.748;2024-03-25T04:05:20;99461.31;;;3.51;100.00
34925;BME280;21130;51.728;8.748;2024-03-25T04:07:45;99455.44;;;3.47;100.00
34925;BME280;21130;51.728;8.748;2024-03-25T04:10:14;99448.03;;;3.48;100.00
34925;BME280;21130;51.728;8.748;2024-03-25T04:12:39;99457.34;;;3.47;100.00
34925;BME280;21130;51.728;8.748;2024-03-25T04:15:07;99452.69;;;3.47;100.00
34925;BME280;21130;51.728;8.748;2024-03-25T04:17:33;99460.09;;;3.47;100.00
34925;BME280;21130;51.728;8.748;2024-03-25T04:19:59;99462.00;;;3.46;100.00
34925;BME280;21130;51.728;8.748;2024-03-25T04:22:25;99461.38;;;3.44;100.00
34925;BME280;21130;51.728;8.748;2024-03-25T04:24:51;99458.84;;;3.43;100.00
34925;BME280;21130;51.728;8.748;2024-03-25T04:27:18;99471.94;;;3.41;100.00
34925;BME280;21130;51.728;8.748;2024-03-25T04:29:47;99465.84;;;3.39;100.00
34925;BME280;21130;51.728;8.748;2024-03-25T04:32:13;99465.84;;;3.39;100.00
34925;BME280;21130;51.728;8.748;2024-03-25T04:34:39;99467.16;;;3.36;100.00
34925;BME280;21130;51.728;8.748;2024-03-25T04:37:05;99470.06;;;3.41;100.00
34925;BME280;21130;51.728;8.748;2024-03-25T04:39:30;99476.19;;;3.37;100.00
34925;BME280;21130;51.728;8.748;2024-03-25T04:41:56;99474.09;;;3.39;100.00
34925;BME280;21130;51.728;8.748;2024-03-25T04:44:23;99483.16;;;3.39;100.00
34925;BME280;21130;51.728;8.748;2024-03-25T04:46:48;99484.63;;;3.35;100.00
34925;BME280;21130;51.728;8.748;2024-03-25T04:49:14;99492.41;;;3.38;100.00
34925;BME280;21130;51.728;8.748;2024-03-25T04:51:40;99489.91;;;3.37;100.00
34925;BME280;21130;51.728;8.748;2024-03-25T04:54:05;99492.22;;;3.40;100.00
34925;BME280;21130;51.728;8.748;2024-03-25T04:56:31;99497.91;;;3.38;100.00
34925;BME280;21130;51.728;8.748;2024-03-25T04:58:57;99498.16;;;3.37;100.00
34925;BME280;21130;51.728;8.748;2024-03-25T05:01:24;99503.00;;;3.35;100.00
34925;BME280;21130;51.728;8.748;2024-03-25T05:03:50;99495.84;;;3.34;100.00
34925;BME280;21130;51.728;8.748;2024-03-25T05:06:15;99500.25;;;3.35;100.00
34925;BME280;21130;51.728;8.748;2024-03-25T05:08:41;99494.56;;;3.36;100.00
34925;BME280;21130;51.728;8.748;2024-03-25T05:11:06;99494.56;;;3.36;100.00
34925;BME280;21130;51.728;8.748;2024-03-25T05:13:32;99487.84;;;3.32;100.00
34925;BME280;21130;51.728;8.748;2024-03-25T05:15:57;99500.47;;;3.33;100.00
34925;BME280;21130;51.728;8.748;2024-03-25T05:18:25;99498.59;;;3.34;100.00
34925;BME280;21130;51.728;8.748;2024-03-25T05:20:50;99506.38;;;3.37;100.00
34925;BME280;21130;51.728;8.748;2024-03-25T05:23:16;99511.22;;;3.35;100.00
34925;BME280;21130;51.728;8.748;2024-03-25T05:25:41;99510.78;;;3.38;100.00
34925;BME280;21130;51.728;8.748;2024-03-25T05:28:07;99522.81;;;3.37;100.00
34925;BME280;21130;51.728;8.748;2024-03-25T05:30:33;99518.19;;;3.37;100.00
34925;BME280;21130;51.728;8.748;2024-03-25T05:32:58;99511.84;;;3.37;100.00
34925;BME280;21130;51.728;8.748;2024-03-25T05:35:25;99517.34;;;3.37;100.00
34925;BME280;21130;51.728;8.748;2024-03-25T05:37:51;99526.19;;;3.39;100.00
34925;BME280;21130;51.728;8.748;2024-03-25T05:40:16;99520.09;;;3.37;100.00
34925;BME280;21130;51.728;8.748;2024-03-25T05:42:44;99531.88;;;3.37;100.00
34925;BME280;21130;51.728;8.748;2024-03-25T05:45:10;99532.28;;;3.41;100.00
34925;BME280;21130;51.728;8.748;2024-03-25T05:47:35;99522.38;;;3.40;100.00
34925;BME280;21130;51.728;8.748;2024-03-25T05:50:01;99528.94;;;3.39;100.00
34925;BME280;21130;51.728;8.748;2024-03-25T05:52:29;99527.88;;;3.40;100.00
34925;BME280;21130;51.728;8.748;2024-03-25T05:54:55;99525.31;;;3.38;100.00
34925;BME280;21130;51.728;8.748;2024-03-25T05:57:21;99527.88;;;3.40;100.00
34925;BME280;21130;51.728;8.748;2024-03-25T05:59:46;99531.69;;;3.39;100.00
34925;BME280;21130;51.728;8.748;2024-03-25T06:02:12;99539.66;;;3.40;100.00
34925;BME280;21130;51.728;8.748;2024-03-25T06:04:38;99539.66;;;3.40;100.00
34925;BME280;21130;51.728;8.748;2024-03-25T06:07:03;99542.81;;;3.44;100.00
34925;BME280;21130;51.728;8.748;2024-03-25T06:09:30;99550.19;;;3.43;100.00
34925;BME280;21130;51.728;8.748;2024-03-25T06:11:57;99548.91;;;3.46;100.00
34925;BME280;21130;51.728;8.748;2024-03-25T06:14:22;99546.56;;;3.50;100.00
34925;BME280;21130;51.728;8.748;2024-03-25T06:17:07;99539.97;;;3.57;100.00
34925;BME280;21130;51.728;8.748;2024-03-25T06:19:53;99542.75;;;3.51;100.00
34925;BME280;21130;51.728;8.748;2024-03-25T06:22:39;99542.94;;;3.56;100.00
34925;BME280;21130;51.728;8.748;2024-03-25T06:25:06;99543.97;;;3.61;100.00
34925;BME280;21130;51.728;8.748;2024-03-25T06:27:32;99547.75;;;3.60;100.00
34925;BME280;21130;51.728;8.748;2024-03-25T06:29:58;99540.59;;;3.59;100.00
34925;BME280;21130;51.728;8.748;2024-03-25T06:32:24;99563.59;;;3.58;100.00
34925;BME280;21130;51.728;8.748;2024-03-25T06:35:08;99557.22;;;3.64;100.00
34925;BME280;21130;51.728;8.748;2024-03-25T06:37:34;99568.19;;;3.64;100.00
34925;BME280;21130;51.728;8.748;2024-03-25T06:39:59;99563.72;;;3.70;100.00
34925;BME280;21130;51.728;8.748;2024-03-25T06:42:26;99563.06;;;3.75;100.00
34925;BME280;21130;51.728;8.748;2024-03-25T06:44:52;99566.41;;;3.77;100.00
34925;BME280;21130;51.728;8.748;2024-03-25T06:47:18;99573.56;;;3.78;100.00
34925;BME280;21130;51.728;8.748;2024-03-25T06:49:44;99576.03;;;3.86;100.00
34925;BME280;21130;51.728;8.748;2024-03-25T06:52:09;99583.69;;;3.84;100.00
34925;BME280;21130;51.728;8.748;2024-03-25T06:54:35;99578.94;;;3.91;100.00
34925;BME280;21130;51.728;8.748;2024-03-25T06:57:02;99577.72;;;3.87;100.00
34925;BME280;21130;51.728;8.748;2024-03-25T06:59:29;99583.84;;;3.89;100.00
34925;BME280;21130;51.728;8.748;2024-03-25T07:01:55;99583.31;;;3.99;100.00
34925;BME280;21130;51.728;8.748;2024-03-25T07:04:20;99579.31;;;4.01;100.00
34925;BME280;21130;51.728;8.748;2024-03-25T07:06:46;99589.38;;;4.07;100.00
34925;BME280;21130;51.728;8.748;2024-03-25T07:09:12;99590.84;;;4.10;100.00
34925;BME280;21130;51.728;8.748;2024-03-25T07:11:38;99585.44;;;4.22;100.00
34925;BME280;21130;51.728;8.748;2024-03-25T07:14:03;99580.22;;;4.14;100.00
34925;BME280;21130;51.728;8.748;2024-03-25T07:16:30;99573.34;;;4.04;100.00
34925;BME280;21130;51.728;8.748;2024-03-25T07:18:57;99565.44;;;4.15;100.00
34925;BME280;21130;51.728;8.748;2024-03-25T07:21:23;99572.16;;;4.19;100.00
34925;BME280;21130;51.728;8.748;2024-03-25T07:23:48;99577.22;;;4.22;100.00
34925;BME280;21130;51.728;8.748;2024-03-25T07:26:14;99563.22;;;4.23;100.00
34925;BME280;21130;51.728;8.748;2024-03-25T07:28:39;99564.25;;;4.29;100.00
34925;BME280;21130;51.728;8.748;2024-03-25T07:31:05;99570.81;;;4.46;100.00
34925;BME280;21130;51.728;8.748;2024-03-25T07:33:32;99561.75;;;4.64;100.00
34925;BME280;21130;51.728;8.748;2024-03-25T07:35:57;99564.94;;;4.80;100.00
34925;BME280;21130;51.728;8.748;2024-03-25T07:38:23;99562.34;;;4.85;100.00
34925;BME280;21130;51.728;8.748;2024-03-25T07:40:48;99557.22;;;5.07;100.00
34925;BME280;21130;51.728;8.748;2024-03-25T07:43:14;99567.25;;;5.13;100.00
34925;BME280;21130;51.728;8.748;2024-03-25T07:45:40;99549.13;;;5.24;100.00
34925;BME280;21130;51.728;8.748;2024-03-25T07:48:06;99550.25;;;5.34;100.00
34925;BME280;21130;51.728;8.748;2024-03-25T07:50:33;99552.19;;;5.46;100.00
34925;BME280;21130;51.728;8.748;2024-03-25T07:52:58;99549.53;;;5.39;100.00
34925;BME280;21130;51.728;8.748;2024-03-25T07:55:24;99543.94;;;5.46;100.00
34925;BME280;21130;51.728;8.748;2024-03-25T07:57:50;99558.81;;;5.68;100.00
34925;BME280;21130;51.728;8.748;2024-03-25T08:00:16;99553.34;;;5.80;100.00
34925;BME280;21130;51.728;8.748;2024-03-25T08:02:42;99555.63;;;5.83;100.00
34925;BME280;21130;51.728;8.748;2024-03-25T08:05:07;99551.06;;;5.65;100.00
34925;BME280;21130;51.728;8.748;2024-03-25T08:07:35;99557.72;;;5.57;100.00
34925;BME280;21130;51.728;8.748;2024-03-25T08:10:00;99558.91;;;5.50;100.00
34925;BME280;21130;51.728;8.748;2024-03-25T08:12:26;99560.78;;;5.37;100.00
34925;BME280;21130;51.728;8.748;2024-03-25T08:14:51;99558.72;;;5.75;100.00
34925;BME280;21130;51.728;8.748;2024-03-25T08:17:17;99564.00;;;5.88;100.00
34925;BME280;21130;51.728;8.748;2024-03-25T08:19:43;99562.84;;;5.96;100.00
34925;BME280;21130;51.728;8.748;2024-03-25T08:22:08;99561.66;;;6.03;100.00
34925;BME280;21130;51.728;8.748;2024-03-25T08:24:35;99555.91;;;6.28;100.00
34925;BME280;21130;51.728;8.748;2024-03-25T08:27:01;99562.38;;;6.11;100.00
34925;BME280;21130;51.728;8.748;2024-03-25T08:29:26;99561.69;;;6.15;100.00
34925;BME280;21130;51.728;8.748;2024-03-25T08:31:52;99557.00;;;6.27;100.00
34925;BME280;21130;51.728;8.748;2024-03-25T08:34:17;99558.13;;;6.67;100.00
34925;BME280;21130;51.728;8.748;2024-03-25T08:36:43;99561.97;;;7.18;100.00
34925;BME280;21130;51.728;8.748;2024-03-25T08:39:09;99557.47;;;6.60;100.00
34925;BME280;21130;51.728;8.748;2024-03-25T08:41:35;99566.44;;;6.55;100.00
34925;BME280;21130;51.728;8.748;2024-03-25T08:44:01;99568.50;;;6.48;100.00
34925;BME280;21130;51.728;8.748;2024-03-25T08:46:27;99561.38;;;6.76;100.00
34925;BME280;21130;51.728;8.748;2024-03-25T08:48:52;99577.41;;;6.90;100.00
34925;BME280;21130;51.728;8.748;2024-03-25T08:51:18;99571.41;;;6.82;100.00
34925;BME280;21130;51.728;8.748;2024-03-25T08:53:43;99578.19;;;6.39;100.00
34925;BME280;21130;51.728;8.748;2024-03-25T08:56:09;99579.03;;;6.04;100.00
34925;BME280;21130;51.728;8.748;2024-03-25T08:58:36;99580.09;;;6.03;100.00
34925;BME280;21130;51.728;8.748;2024-03-25T09:01:02;99570.44;;;6.12;100.00
34925;BME280;21130;51.728;8.748;2024-03-25T09:03:28;99567.41;;;6.49;100.00
34925;BME280;21130;51.728;8.748;2024-03-25T09:05:53;99568.94;;;6.57;100.00
34925;BME280;21130;51.728;8.748;2024-03-25T09:08:19;99574.56;;;6.85;100.00
34925;BME280;21130;51.728;8.748;2024-03-25T09:10:45;99569.13;;;6.90;100.00
34925;BME280;21130;51.728;8.748;2024-03-25T09:13:29;99560.75;;;6.85;100.00
34925;BME280;21130;51.728;8.748;2024-03-25T09:15:57;99554.81;;;6.53;100.00
34925;BME280;21130;51.728;8.748;2024-03-25T09:18:22;99563.53;;;6.62;100.00
34925;BME280;21130;51.728;8.748;2024-03-25T09:20:48;99561.06;;;6.60;100.00
34925;BME280;21130;51.728;8.748;2024-03-25T09:23:14;99557.25;;;7.30;100.00
34925;BME280;21130;51.728;8.748;2024-03-25T09:25:40;99550.34;;;7.62;100.00
34925;BME280;21130;51.728;8.748;2024-03-25T09:28:05;99553.28;;;7.72;100.00
34925;BME280;21130;51.728;8.748;2024-03-25T09:30:31;99550.94;;;7.64;100.00
34925;BME280;21130;51.728;8.748;2024-03-25T09:32:58;99539.66;;;7.99;100.00
34925;BME280;21130;51.728;8.748;2024-03-25T09:35:24;99548.94;;;8.10;100.00
34925;BME280;21130;51.728;8.748;2024-03-25T09:37:49;99549.09;;;7.69;100.00
34925;BME280;21130;51.728;8.748;2024-03-25T09:40:15;99540.75;;;7.98;100.00
34925;BME280;21130;51.728;8.748;2024-03-25T09:42:46;99534.06;;;8.89;100.00
34925;BME280;21130;51.728;8.748;2024-03-25T09:45:13;99538.25;;;9.13;100.00
34925;BME280;21130;51.728;8.748;2024-03-25T09:47:43;99539.19;;;9.02;100.00
34925;BME280;21130;51.728;8.748;2024-03-25T09:50:12;99526.84;;;9.37;100.00
34925;BME280;21130;51.728;8.748;2024-03-25T09:52:38;99534.06;;;9.38;100.00
34925;BME280;21130;51.728;8.748;2024-03-25T09:55:04;99544.78;;;9.29;100.00
34925;BME280;21130;51.728;8.748;2024-03-25T09:57:30;99535.97;;;9.10;100.00
34925;BME280;21130;51.728;8.748;2024-03-25T09:59:56;99535.94;;;8.83;100.00
34925;BME280;21130;51.728;8.748;2024-03-25T10:02:23;99541.00;;;8.30;100.00
34925;BME280;21130;51.728;8.748;2024-03-25T10:04:49;99538.59;;;7.83;100.00
34925;BME280;21130;51.728;8.748;2024-03-25T10:07:23;99545.09;;;7.60;100.00
34925;BME280;21130;51.728;8.748;2024-03-25T10:09:49;99548.50;;;7.22;100.00
34925;BME280;21130;51.728;8.748;2024-03-25T10:12:14;99552.09;;;7.22;100.00
34925;BME280;21130;51.728;8.748;2024-03-25T10:14:40;99549.22;;;6.88;100.00
34925;BME280;21130;51.728;8.748;2024-03-25T10:17:06;99555.63;;;6.77;100.00
34925;BME280;21130;51.728;8.748;2024-03-25T10:19:32;99550.13;;;6.65;100.00
34925;BME280;21130;51.728;8.748;2024-03-25T10:22:03;99555.97;;;6.69;100.00
34925;BME280;21130;51.728;8.748;2024-03-25T10:24:38;99554.19;;;6.75;100.00
34925;BME280;21130;51.728;8.748;2024-03-25T10:27:04;99550.13;;;6.65;100.00
34925;BME280;21130;51.728;8.748;2024-03-25T10:29:30;99560.34;;;6.53;100.00
34925;BME280;21130;51.728;8.748;2024-03-25T10:31:59;99553.28;;;6.57;100.00
34925;BME280;21130;51.728;8.748;2024-03-25T10:34:24;99555.66;;;6.65;100.00
34925;BME280;21130;51.728;8.748;2024-03-25T10:36:51;99553.88;;;6.47;100.00
34925;BME280;21130;51.728;8.748;2024-03-25T10:39:20;99549.91;;;6.55;100.00
34925;BME280;21130;51.728;8.748;2024-03-25T10:41:48;99550.72;;;6.67;100.00
34925;BME280;21130;51.728;8.748;2024-03-25T10:44:14;99554.41;;;6.85;100.00
34925;BME280;21130;51.728;8.748;2024-03-25T10:46:40;99551.88;;;6.95;100.00
34925;BME280;21130;51.728;8.748;2024-03-25T10:49:11;99546.91;;;6.97;100.00
34925;BME280;21130;51.728;8.748;2024-03-25T10:51:41;99551.38;;;7.27;100.00
34925;BME280;21130;51.728;8.748;2024-03-25T10:54:07;99544.66;;;7.51;100.00
34925;BME280;21130;51.728;8.748;2024-03-25T10:56:33;99538.00;;;7.98;100.00
34925;BME280;21130;51.728;8.748;2024-03-25T10:59:01;99532.88;;;8.07;100.00
34925;BME280;21130;51.728;8.748;2024-03-25T11:01:29;99534.22;;;8.04;100.00
34925;BME280;21130;51.728;8.748;2024-03-25T11:03:56;99530.03;;;8.01;100.00
34925;BME280;21130;51.728;8.748;2024-03-25T11:06:23;99531.16;;;8.22;100.00
34925;BME280;21130;51.728;8.748;2024-03-25T11:08:55;99524.50;;;8.01;100.00
34925;BME280;21130;51.728;8.748;2024-03-25T11:11:21;99524.00;;;7.71;100.00
34925;BME280;21130;51.728;8.748;2024-03-25T11:13:47;99517.78;;;7.97;100.00
34925;BME280;21130;51.728;8.748;2024-03-25T11:16:26;99526.28;;;7.91;100.00
34925;BME280;21130;51.728;8.748;2024-03-25T11:18:52;99525.00;;;7.82;100.00
34925;BME280;21130;51.728;8.748;2024-03-25T11:21:24;99513.72;;;8.00;100.00
34925;BME280;21130;51.728;8.748;2024-03-25T11:23:50;99525.69;;;8.06;100.00
34925;BME280;21130;51.728;8.748;2024-03-25T11:26:18;99523.81;;;8.11;100.00
34925;BME280;21130;51.728;8.748;2024-03-25T11:28:44;99524.50;;;7.85;100.00
34925;BME280;21130;51.728;8.748;2024-03-25T11:31:09;99518.97;;;8.01;100.00
34925;BME280;21130;51.728;8.748;2024-03-25T11:33:38;99514.94;;;7.92;100.00
34925;BME280;21130;51.728;8.748;2024-03-25T11:36:04;99509.09;;;8.06;100.00
34925;BME280;21130;51.728;8.748;2024-03-25T11:38:30;99505.22;;;8.23;100.00
34925;BME280;21130;51.728;8.748;2024-03-25T11:40:56;99499.53;;;8.30;100.00
34925;BME280;21130;51.728;8.748;2024-03-25T11:43:22;99499.19;;;8.43;100.00
34925;BME280;21130;51.728;8.748;2024-03-25T11:45:48;99494.44;;;8.61;100.00
34925;BME280;21130;51.728;8.748;2024-03-25T11:48:14;99493.31;;;8.84;100.00
34925;BME280;21130;51.728;8.748;2024-03-25T11:50:45;99493.25;;;8.57;100.00
34925;BME280;21130;51.728;8.748;2024-03-25T11:53:11;99491.91;;;8.59;100.00
34925;BME280;21130;51.728;8.748;2024-03-25T11:55:38;99492.03;;;8.70;100.00
34925;BME280;21130;51.728;8.748;2024-03-25T11:58:04;99488.97;;;8.66;100.00
34925;BME280;21130;51.728;8.748;2024-03-25T12:00:30;99482.13;;;8.74;100.00
34925;BME280;21130;51.728;8.748;2024-03-25T12:02:55;99485.97;;;8.95;100.00
34925;BME280;21130;51.728;8.748;2024-03-25T12:05:21;99484.72;;;8.80;100.00
34925;BME280;21130;51.728;8.748;2024-03-25T12:07:48;99482.25;;;9.06;92.22
34925;BME280;21130;51.728;8.748;2024-03-25T12:10:14;99473.41;;;9.09;93.32
34925;BME280;21130;51.728;8.748;2024-03-25T12:12:59;99470.72;;;9.46;97.09
34925;BME280;21130;51.728;8.748;2024-03-25T12:15:24;99464.41;;;9.51;92.72
34925;BME280;21130;51.728;8.748;2024-03-25T12:17:50;99460.84;;;9.93;92.65
34925;BME280;21130;51.728;8.748;2024-03-25T12:20:16;99460.03;;;9.98;82.59
34925;BME280;21130;51.728;8.748;2024-03-25T12:22:43;99462.97;;;9.76;84.10
34925;BME280;21130;51.728;8.748;2024-03-25T12:25:10;99447.53;;;9.90;76.43
34925;BME280;21130;51.728;8.748;2024-03-25T12:27:37;99440.16;;;10.53;73.74
34925;BME280;21130;51.728;8.748;2024-03-25T12:30:05;99439.50;;;11.09;67.70
34925;BME280;21130;51.728;8.748;2024-03-25T12:32:41;99432.72;;;10.64;64.22
34925;BME280;21130;51.728;8.748;2024-03-25T12:35:08;99432.47;;;10.23;68.02
34925;BME280;21130;51.728;8.748;2024-03-25T12:37:36;99435.09;;;10.40;66.64
34925;BME280;21130;51.728;8.748;2024-03-25T12:40:02;99434.13;;;9.77;71.16
34925;BME280;21130;51.728;8.748;2024-03-25T12:42:30;99434.06;;;9.66;71.65
34925;BME280;21130;51.728;8.748;2024-03-25T12:44:56;99430.25;;;9.78;73.29
34925;BME280;21130;51.728;8.748;2024-03-25T12:47:22;99428.47;;;9.61;80.06
34925;BME280;21130;51.728;8.748;2024-03-25T12:49:47;99414.56;;;9.51;79.38
34925;BME280;21130;51.728;8.748;2024-03-25T12:52:13;99421.13;;;9.45;81.20
34925;BME280;21130;51.728;8.748;2024-03-25T12:54:39;99420.50;;;10.12;72.99
34925;BME280;21130;51.728;8.748;2024-03-25T12:57:05;99421.31;;;10.60;68.50
34925;BME280;21130;51.728;8.748;2024-03-25T12:59:32;99403.72;;;11.69;67.93